createdAt,value
2018-01-06T00:01:40.584Z,14.07
2018-01-06T00:04:10.221Z,12.60
2018-01-06T00:06:39.396Z,12.87
2018-01-06T00:09:07.852Z,11.27
2018-01-06T00:11:36.298Z,13.70
2018-01-06T00:14:04.634Z,12.83
2018-01-06T00:16:33.261Z,16.50
2018-01-06T00:19:01.770Z,16.20
2018-01-06T00:21:30.262Z,20.43
2018-01-06T00:23:58.671Z,18.67
2018-01-06T00:26:27.282Z,15.30
2018-01-06T00:28:56.730Z,17.17
2018-01-06T00:31:25.320Z,14.87
2018-01-06T00:33:53.701Z,13.73
2018-01-06T00:36:22.225Z,15.30
2018-01-06T00:38:51.639Z,18.00
2018-01-06T00:41:20.010Z,15.37
2018-01-06T00:43:49.525Z,14.87
2018-01-06T00:46:18.779Z,18.40
2018-01-06T00:48:47.393Z,15.80
2018-01-06T00:51:16.443Z,18.70
2018-01-06T00:53:45.339Z,16.10
2018-01-06T00:56:13.691Z,13.70
2018-01-06T00:58:42.233Z,19.20
2018-01-06T01:01:10.718Z,15.90
2018-01-06T01:03:39.034Z,16.63
2018-01-06T01:06:07.512Z,18.00
2018-01-06T01:08:36.193Z,15.50
2018-01-06T01:11:05.997Z,15.90
2018-01-06T01:13:34.313Z,16.33
2018-01-06T01:16:02.685Z,11.47
2018-01-06T01:18:31.016Z,13.60
2018-01-06T01:20:59.360Z,13.50
2018-01-06T01:23:27.993Z,11.50
2018-01-06T01:25:57.005Z,14.67
2018-01-06T01:28:25.317Z,11.10
2018-01-06T01:30:53.621Z,13.47
2018-01-06T01:33:23.093Z,11.67
2018-01-06T01:35:51.409Z,12.30
2018-01-06T01:38:19.705Z,12.47
2018-01-06T01:40:47.990Z,10.47
2018-01-06T01:43:16.306Z,14.20
2018-01-06T01:45:44.776Z,9.80
2018-01-06T01:48:13.120Z,14.17
2018-01-06T01:50:41.401Z,10.17
2018-01-06T01:53:10.241Z,10.97
2018-01-06T01:55:39.221Z,10.33
2018-01-06T01:58:08.329Z,10.43
2018-01-06T02:00:36.760Z,12.53
2018-01-06T02:03:05.402Z,10.73
2018-01-06T02:05:33.702Z,8.47
2018-01-06T02:08:02.405Z,14.30
2018-01-06T02:10:31.230Z,9.67
2018-01-06T02:12:59.569Z,10.53
2018-01-06T02:15:28.682Z,10.07
2018-01-06T02:17:57.042Z,14.67
2018-01-06T02:20:25.978Z,10.50
2018-01-06T02:22:54.435Z,11.83
2018-01-06T02:25:23.000Z,10.30
2018-01-06T02:27:53.410Z,10.50
2018-01-06T02:30:22.540Z,9.23
2018-01-06T02:32:50.809Z,12.83
2018-01-06T02:35:19.148Z,10.87
2018-01-06T02:37:47.605Z,12.80
2018-01-06T02:40:16.060Z,12.80
2018-01-06T02:42:44.362Z,9.07
2018-01-06T02:45:12.656Z,13.07
2018-01-06T02:47:41.657Z,10.03
2018-01-06T02:50:11.301Z,15.17
2018-01-06T02:52:40.626Z,10.57
2018-01-06T02:55:09.193Z,10.87
2018-01-06T02:57:38.026Z,12.10
2018-01-06T03:00:07.086Z,15.17
2018-01-06T03:02:35.673Z,12.80
2018-01-06T03:05:04.457Z,13.00
2018-01-06T03:07:32.791Z,10.07
2018-01-06T03:10:01.209Z,19.93
2018-01-06T03:12:30.050Z,14.87
2018-01-06T03:15:00.053Z,13.00
2018-01-06T03:17:28.420Z,9.30
2018-01-06T03:19:56.729Z,10.13
2018-01-06T03:22:25.527Z,11.53
2018-01-06T03:24:54.565Z,10.03
2018-01-06T03:27:23.025Z,12.30
2018-01-06T03:29:52.054Z,10.53
2018-01-06T03:32:20.641Z,10.53
2018-01-06T03:34:49.213Z,11.27
2018-01-06T03:37:17.712Z,11.57
2018-01-06T03:39:46.105Z,12.33
2018-01-06T03:42:14.608Z,17.77
2018-01-06T03:44:44.228Z,12.90
2018-01-06T03:47:13.299Z,11.10
2018-01-06T03:49:41.808Z,13.47
2018-01-06T03:52:10.622Z,15.47
2018-01-06T03:54:39.189Z,13.20
2018-01-06T03:57:07.813Z,12.30
2018-01-06T03:59:38.069Z,11.03
2018-01-06T04:02:07.234Z,10.63
2018-01-06T04:04:35.549Z,10.23
2018-01-06T04:07:04.774Z,10.50
2018-01-06T04:09:33.377Z,13.83
2018-01-06T04:12:02.047Z,14.30
2018-01-06T04:14:30.975Z,12.93
2018-01-06T04:16:59.498Z,10.60
2018-01-06T04:19:28.680Z,14.33
2018-01-06T04:21:57.030Z,11.30
2018-01-06T04:24:26.250Z,13.83
2018-01-06T04:26:54.590Z,14.77
2018-01-06T04:29:22.868Z,11.13
2018-01-06T04:31:51.581Z,12.23
2018-01-06T04:34:20.256Z,14.57
2018-01-06T04:36:48.872Z,14.47
2018-01-06T04:39:18.306Z,12.20
2018-01-06T04:41:47.261Z,15.27
2018-01-06T04:44:16.021Z,18.00
2018-01-06T04:46:44.625Z,13.27
2018-01-06T04:49:13.403Z,14.10
2018-01-06T04:51:41.878Z,12.60
2018-01-06T04:54:10.457Z,12.10
2018-01-06T04:56:39.728Z,10.73
2018-01-06T04:59:08.245Z,11.40
2018-01-06T05:01:36.637Z,13.07
2018-01-06T05:04:05.057Z,11.53
2018-01-06T05:06:33.505Z,12.23
2018-01-06T05:09:02.236Z,15.03
2018-01-06T05:11:30.857Z,15.03
2018-01-06T05:13:59.237Z,11.83
2018-01-06T05:16:27.733Z,12.87
2018-01-06T05:18:56.566Z,13.87
2018-01-06T05:21:25.295Z,11.17
2018-01-06T05:23:53.717Z,13.60
2018-01-06T05:26:22.136Z,11.40
2018-01-06T05:28:50.430Z,11.93
2018-01-06T05:31:19.746Z,14.43
2018-01-06T05:33:48.669Z,12.67
2018-01-06T05:36:18.369Z,14.80
2018-01-06T05:38:46.790Z,11.77
2018-01-06T05:41:17.170Z,12.67
2018-01-06T05:43:45.472Z,14.73
2018-01-06T05:46:14.561Z,16.83
2018-01-06T05:48:43.099Z,11.40
2018-01-06T05:51:11.423Z,15.73
2018-01-06T05:53:40.198Z,13.30
2018-01-06T05:56:08.492Z,13.70
2018-01-06T05:58:37.142Z,13.23
2018-01-06T06:01:05.441Z,19.07
2018-01-06T06:03:34.243Z,16.53
2018-01-06T06:06:02.745Z,11.20
2018-01-06T06:08:31.259Z,13.87
2018-01-06T06:10:59.545Z,15.50
2018-01-06T06:13:27.830Z,16.80
2018-01-06T06:15:56.286Z,14.30
2018-01-06T06:18:24.889Z,13.80
2018-01-06T06:20:53.201Z,14.20
2018-01-06T06:23:21.847Z,17.50
2018-01-06T06:25:50.502Z,17.97
2018-01-06T06:28:18.805Z,14.13
2018-01-06T06:30:47.498Z,19.73
2018-01-06T06:33:16.174Z,17.87
2018-01-06T06:35:44.479Z,15.30
2018-01-06T06:38:12.989Z,13.17
2018-01-06T06:40:42.110Z,17.50
2018-01-06T06:43:10.429Z,14.10
2018-01-06T06:45:38.781Z,13.70
2018-01-06T06:48:07.621Z,13.27
2018-01-06T06:50:36.915Z,12.60
2018-01-06T06:53:05.378Z,12.90
2018-01-06T06:55:34.310Z,12.17
2018-01-06T06:58:02.671Z,15.73
2018-01-06T07:00:31.238Z,14.37
2018-01-06T07:03:00.387Z,15.30
2018-01-06T07:05:28.909Z,11.60
2018-01-06T07:07:57.836Z,17.73
2018-01-06T07:10:26.618Z,14.80
2018-01-06T07:12:54.949Z,11.80
2018-01-06T07:15:23.620Z,15.10
2018-01-06T07:17:52.301Z,14.30
2018-01-06T07:20:21.020Z,10.40
2018-01-06T07:22:49.766Z,10.67
2018-01-06T07:25:18.145Z,13.90
2018-01-06T07:27:46.458Z,10.87
2018-01-06T07:30:14.756Z,10.73
2018-01-06T07:32:43.117Z,11.53
2018-01-06T07:35:11.442Z,10.50
2018-01-06T07:37:40.587Z,10.40
2018-01-06T07:40:09.188Z,11.03
2018-01-06T07:42:37.657Z,10.50
2018-01-06T07:45:06.373Z,12.43
2018-01-06T07:47:34.962Z,12.57
2018-01-06T07:50:03.768Z,11.03
2018-01-06T07:52:32.189Z,9.57
2018-01-06T07:55:01.141Z,12.40
2018-01-06T07:57:29.513Z,12.03
2018-01-06T07:59:57.802Z,16.30
2018-01-06T08:02:26.129Z,12.57
2018-01-06T08:04:54.688Z,11.33
2018-01-06T08:07:23.035Z,13.07
2018-01-06T08:09:52.530Z,13.93
2018-01-06T08:12:21.573Z,10.90
2018-01-06T08:14:50.356Z,17.80
2018-01-06T08:17:18.642Z,15.50
2018-01-06T08:19:46.941Z,10.17
2018-01-06T08:22:15.217Z,13.50
2018-01-06T08:24:43.692Z,11.50
2018-01-06T08:27:12.006Z,12.67
2018-01-06T08:29:41.068Z,12.20
2018-01-06T08:32:09.352Z,10.80
2018-01-06T08:34:38.234Z,12.23
2018-01-06T08:37:06.934Z,15.97
2018-01-06T08:39:35.617Z,12.80
2018-01-06T08:42:05.597Z,17.60
2018-01-06T08:44:34.321Z,14.20
2018-01-06T08:47:02.921Z,18.53
2018-01-06T08:49:31.245Z,12.13
2018-01-06T08:51:59.589Z,14.30
2018-01-06T08:54:28.370Z,13.73
2018-01-06T08:56:58.033Z,14.27
2018-01-06T08:59:26.507Z,15.03
2018-01-06T09:01:55.672Z,16.23
2018-01-06T09:04:24.912Z,15.10
2018-01-06T09:06:53.481Z,12.00
2018-01-06T09:09:21.934Z,14.53
2018-01-06T09:11:51.486Z,13.83
2018-01-06T09:14:19.905Z,15.30
2018-01-06T09:16:48.457Z,15.50
2018-01-06T09:19:16.782Z,13.10
2018-01-06T09:21:46.025Z,15.80
2018-01-06T09:24:14.834Z,15.27
2018-01-06T09:26:43.321Z,16.63
2018-01-06T09:29:11.862Z,13.80
2018-01-06T09:31:40.266Z,17.23
2018-01-06T09:34:08.849Z,19.20
2018-01-06T09:36:37.193Z,17.47
2018-01-06T09:39:06.033Z,14.60
2018-01-06T09:41:34.312Z,14.47
2018-01-06T09:44:02.673Z,13.57
2018-01-06T09:46:31.797Z,14.40
2018-01-06T09:49:00.087Z,16.03
2018-01-06T09:51:29.450Z,18.17
2018-01-06T09:53:57.924Z,15.37
2018-01-06T09:56:26.454Z,17.97
2018-01-06T09:58:55.462Z,16.30
2018-01-06T10:01:23.789Z,13.50
2018-01-06T10:03:52.155Z,14.83
2018-01-06T10:06:20.973Z,21.70
2018-01-06T10:08:51.140Z,14.47
2018-01-06T10:11:19.471Z,15.10
2018-01-06T10:13:49.303Z,15.17
2018-01-06T10:16:18.347Z,14.43
2018-01-06T10:18:46.644Z,15.07
2018-01-06T10:21:14.977Z,16.23
2018-01-06T10:23:43.650Z,15.27
2018-01-06T10:26:12.732Z,17.50
2018-01-06T10:28:41.041Z,17.27
2018-01-06T10:31:09.321Z,16.73
2018-01-06T10:33:38.073Z,15.70
2018-01-06T10:36:06.386Z,16.07
2018-01-06T10:38:34.697Z,15.00
2018-01-06T10:41:03.002Z,15.57
2018-01-06T10:43:31.824Z,15.27
2018-01-06T10:46:00.336Z,13.90
2018-01-06T10:48:28.656Z,16.10
2018-01-06T10:50:56.961Z,16.80
2018-01-06T10:53:25.290Z,15.77
2018-01-06T10:55:53.642Z,15.90
2018-01-06T10:58:22.785Z,13.87
2018-01-06T11:00:57.669Z,18.00
2018-01-06T11:03:26.006Z,14.77
2018-01-06T11:05:55.067Z,15.00
2018-01-06T11:08:23.402Z,16.97
2018-01-06T11:10:51.941Z,16.93
2018-01-06T11:13:20.253Z,14.50
2018-01-06T11:15:48.557Z,15.97
2018-01-06T11:18:16.875Z,15.30
2018-01-06T11:20:46.686Z,14.97
2018-01-06T11:23:14.997Z,16.50
2018-01-06T11:25:44.473Z,15.90
2018-01-06T11:28:12.864Z,16.90
2018-01-06T11:30:41.893Z,19.67
2018-01-06T11:33:10.310Z,14.23
2018-01-06T11:35:38.666Z,15.53
2018-01-06T11:38:07.226Z,14.97
2018-01-06T11:40:36.346Z,15.97
2018-01-06T11:43:04.689Z,15.90
2018-01-06T11:45:34.101Z,16.40
2018-01-06T11:48:02.434Z,14.83
2018-01-06T11:50:30.797Z,14.37
2018-01-06T11:52:59.110Z,14.57
2018-01-06T11:55:27.514Z,15.40
2018-01-06T11:57:56.968Z,18.37
2018-01-06T12:00:25.301Z,14.17
2018-01-06T12:02:53.917Z,14.73
2018-01-06T12:05:22.254Z,18.40
2018-01-06T12:07:51.183Z,15.10
2018-01-06T12:10:19.481Z,17.00
2018-01-06T12:12:47.801Z,16.83
2018-01-06T12:15:16.101Z,16.00
2018-01-06T12:17:44.628Z,14.73
2018-01-06T12:20:13.091Z,16.53
2018-01-06T12:22:41.397Z,13.17
2018-01-06T12:25:10.842Z,16.67
2018-01-06T12:27:39.326Z,15.67
2018-01-06T12:30:08.046Z,13.30
2018-01-06T12:32:36.365Z,14.27
2018-01-06T12:35:04.681Z,14.40
2018-01-06T12:37:33.047Z,11.63
2018-01-06T12:40:01.973Z,12.40
2018-01-06T12:42:30.317Z,13.17
2018-01-06T12:44:58.653Z,12.10
2018-01-06T12:47:26.923Z,11.00
2018-01-06T12:49:55.209Z,9.30
2018-01-06T12:52:24.698Z,7.43
2018-01-06T12:54:53.099Z,7.33
2018-01-06T12:57:21.398Z,7.07
2018-01-06T12:59:49.738Z,4.70
2018-01-06T13:02:18.038Z,5.53
2018-01-06T13:04:46.314Z,5.47
2018-01-06T13:07:14.806Z,3.87
2018-01-06T13:09:43.845Z,4.50
2018-01-06T13:12:12.701Z,3.50
2018-01-06T13:14:41.632Z,3.00
2018-01-06T13:17:10.082Z,5.03
2018-01-06T13:19:38.406Z,5.60
2018-01-06T13:22:08.573Z,4.00
2018-01-06T13:24:36.902Z,3.97
2018-01-06T13:27:05.225Z,3.77
2018-01-06T13:29:34.427Z,3.83
2018-01-06T13:32:02.783Z,3.27
2018-01-06T13:34:32.413Z,2.37
2018-01-06T13:37:00.792Z,3.73
2018-01-06T13:39:29.069Z,2.73
2018-01-06T13:41:57.341Z,3.80
2018-01-06T13:44:25.829Z,3.40
2018-01-06T13:46:54.172Z,3.27
2018-01-06T13:49:22.494Z,2.70
2018-01-06T13:51:51.519Z,2.77
2018-01-06T13:54:19.853Z,2.80
2018-01-06T13:56:48.173Z,3.80
2018-01-06T13:59:16.504Z,3.60
2018-01-06T14:01:46.022Z,4.20
2018-01-06T14:04:15.081Z,5.83
2018-01-06T14:06:43.472Z,5.80
2018-01-06T14:09:12.542Z,8.50
2018-01-06T14:11:41.104Z,5.70
2018-01-06T14:14:10.182Z,5.30
2018-01-06T14:16:38.682Z,5.90
2018-01-06T14:19:07.163Z,4.50
2018-01-06T14:21:35.455Z,3.97
2018-01-06T14:24:04.273Z,3.70
2018-01-06T14:26:32.565Z,4.20
2018-01-06T14:29:01.024Z,4.33
2018-01-06T14:31:31.021Z,3.97
2018-01-06T14:33:59.320Z,5.23
2018-01-06T14:36:27.633Z,4.13
2018-01-06T14:38:55.949Z,4.00
2018-01-06T14:41:24.377Z,4.83
2018-01-06T14:43:53.420Z,4.40
2018-01-06T14:46:21.762Z,5.13
2018-01-06T14:48:50.345Z,4.30
2018-01-06T14:51:18.825Z,4.90
2018-01-06T14:53:47.126Z,4.47
2018-01-06T14:56:15.986Z,5.93
2018-01-06T14:58:45.177Z,4.97
2018-01-06T15:01:14.337Z,5.17
2018-01-06T15:03:42.788Z,6.53
2018-01-06T15:06:11.217Z,5.43
2018-01-06T15:08:39.843Z,5.23
2018-01-06T15:11:08.914Z,5.40
2018-01-06T15:13:38.257Z,4.80
2018-01-06T15:16:06.637Z,5.60
2018-01-06T15:18:34.950Z,4.87
2018-01-06T15:21:03.505Z,4.67
2018-01-06T15:23:31.832Z,5.63
2018-01-06T15:26:00.246Z,5.77
2018-01-06T15:28:28.561Z,4.77
2018-01-06T15:30:56.876Z,4.60
2018-01-06T15:33:26.258Z,5.03
2018-01-06T15:35:55.328Z,4.57
2018-01-06T15:38:23.605Z,4.30
2018-01-06T15:40:52.137Z,3.87
2018-01-06T15:43:20.684Z,4.67
2018-01-06T15:45:48.957Z,5.03
2018-01-06T15:48:17.312Z,4.30
2018-01-06T15:50:45.625Z,4.77
2018-01-06T15:53:13.951Z,4.60
2018-01-06T15:55:42.265Z,4.77
2018-01-06T15:58:11.078Z,4.67
2018-01-06T16:00:39.610Z,4.37
2018-01-06T16:03:08.177Z,3.97
2018-01-06T16:05:36.498Z,4.97
2018-01-06T16:08:05.115Z,4.43
2018-01-06T16:10:33.422Z,3.97
2018-01-06T16:13:02.098Z,4.20
2018-01-06T16:15:30.864Z,5.20
2018-01-06T16:17:59.939Z,4.03
2018-01-06T16:20:28.241Z,4.50
2018-01-06T16:22:57.489Z,5.60
2018-01-06T16:25:25.806Z,5.33
2018-01-06T16:27:54.945Z,5.60
2018-01-06T16:30:23.274Z,6.23
2018-01-06T16:32:51.773Z,6.53
2018-01-06T16:35:21.053Z,6.80
2018-01-06T16:37:49.754Z,6.00
2018-01-06T16:40:18.045Z,4.80
2018-01-06T16:42:47.086Z,5.77
2018-01-06T16:45:15.566Z,5.10
2018-01-06T16:47:43.915Z,4.37
2018-01-06T16:50:13.201Z,4.63
2018-01-06T16:52:41.533Z,4.27
2018-01-06T16:55:09.957Z,3.50
2018-01-06T16:57:39.720Z,4.00
2018-01-06T17:00:08.064Z,4.43
2018-01-06T17:02:36.377Z,3.57
2018-01-06T17:05:04.794Z,3.80
2018-01-06T17:07:33.131Z,3.77
2018-01-06T17:10:01.418Z,3.97
2018-01-06T17:12:29.729Z,4.00
2018-01-06T17:14:58.756Z,4.17
2018-01-06T17:17:27.429Z,6.70
2018-01-06T17:19:56.146Z,4.27
2018-01-06T17:22:25.112Z,4.43
2018-01-06T17:24:54.172Z,4.13
2018-01-06T17:28:07.576Z,3.30
2018-01-06T17:33:45.987Z,4.43
2018-01-06T17:36:37.098Z,4.00
2018-01-06T17:39:30.896Z,3.80
2018-01-06T17:42:26.439Z,3.90
2018-01-06T17:45:30.824Z,4.60
2018-01-06T17:48:26.943Z,4.17
2018-01-06T17:51:25.362Z,5.10
2018-01-06T17:58:37.618Z,4.03
2018-01-06T18:01:25.151Z,4.53
2018-01-06T18:03:54.245Z,3.50
2018-01-06T18:09:14.745Z,3.87
2018-01-06T18:11:43.067Z,4.60
2018-01-06T18:14:12.152Z,3.50
2018-01-06T18:16:41.198Z,4.00
2018-01-06T18:19:09.901Z,5.17
2018-01-06T18:21:38.189Z,5.20
2018-01-06T18:24:08.034Z,4.60
2018-01-06T18:26:36.365Z,3.50
2018-01-06T18:29:04.710Z,3.70
2018-01-06T18:31:33.057Z,3.40
2018-01-06T18:34:01.425Z,6.33
2018-01-06T18:36:30.488Z,3.07
2018-01-06T18:38:58.862Z,3.27
2018-01-06T18:41:27.198Z,2.90
2018-01-06T18:43:55.897Z,3.30
2018-01-06T18:46:24.241Z,3.93
2018-01-06T18:48:52.549Z,3.10
2018-01-06T18:51:20.859Z,2.20
2018-01-06T18:53:49.239Z,3.20
2018-01-06T18:56:18.296Z,3.47
2018-01-06T18:58:46.569Z,3.40
2018-01-06T19:01:15.594Z,3.90
2018-01-06T19:03:44.202Z,3.60
2018-01-06T19:06:12.553Z,3.80
2018-01-06T19:08:40.856Z,3.60
2018-01-06T19:11:09.464Z,4.80
2018-01-06T19:13:39.477Z,4.00
2018-01-06T19:16:07.789Z,3.20
2018-01-06T19:18:36.083Z,4.13
2018-01-06T19:21:04.427Z,4.03
2018-01-06T19:23:33.486Z,4.63
2018-01-06T19:26:01.797Z,4.23
2018-01-06T19:28:30.439Z,3.70
2018-01-06T19:30:58.786Z,4.30
2018-01-06T19:33:27.453Z,2.83
2018-01-06T19:35:56.519Z,3.50
2018-01-06T19:38:24.825Z,3.83
2018-01-06T19:40:53.877Z,3.10
2018-01-06T19:43:22.187Z,3.43
2018-01-06T19:45:50.516Z,3.47
2018-01-06T19:48:18.889Z,3.10
2018-01-06T19:50:47.439Z,3.40
2018-01-06T19:53:16.521Z,3.20
2018-01-06T19:55:44.848Z,3.87
2018-01-06T19:58:13.205Z,3.60
2018-01-06T20:00:42.077Z,3.63
2018-01-06T20:03:11.109Z,4.40
2018-01-06T20:05:39.385Z,4.23
2018-01-06T20:08:07.909Z,4.13
2018-01-06T20:10:36.255Z,3.60
2018-01-06T20:13:04.604Z,4.97
2018-01-06T20:15:33.637Z,4.83
2018-01-06T20:18:02.025Z,4.37
2018-01-06T20:20:30.326Z,4.43
2018-01-06T20:23:14.273Z,4.20
2018-01-06T20:25:42.565Z,4.97
2018-01-06T20:28:12.495Z,5.47
2018-01-06T20:30:40.986Z,5.77
2018-01-06T20:33:09.329Z,5.67
2018-01-06T20:35:37.647Z,5.27
2018-01-06T20:38:06.061Z,5.03
2018-01-06T20:40:34.961Z,5.90
2018-01-06T20:43:03.502Z,5.70
2018-01-06T20:45:31.838Z,6.57
2018-01-06T20:48:00.983Z,5.73
2018-01-06T20:50:29.299Z,5.70
2018-01-06T20:52:57.614Z,5.13
2018-01-06T20:55:26.656Z,6.13
2018-01-06T20:57:55.073Z,6.33
2018-01-06T21:00:23.373Z,6.30
2018-01-06T21:02:51.742Z,4.67
2018-01-06T21:05:20.521Z,5.10
2018-01-06T21:07:48.874Z,7.27
2018-01-06T21:10:17.386Z,4.10
2018-01-06T21:12:46.482Z,4.80
2018-01-06T21:15:16.112Z,5.37
2018-01-06T21:17:44.417Z,5.83
2018-01-06T21:20:12.798Z,4.93
2018-01-06T21:22:41.193Z,5.30
2018-01-06T21:37:59.685Z,3.67
2018-01-06T21:40:28.209Z,5.30
2018-01-06T21:42:56.674Z,3.03
2018-01-06T21:45:25.017Z,3.43
2018-01-06T21:47:53.520Z,3.97
2018-01-06T21:50:22.021Z,3.30
2018-01-06T21:52:50.380Z,3.70
2018-01-06T21:55:18.729Z,3.10
2018-01-06T21:57:47.215Z,3.27
2018-01-06T22:00:15.590Z,3.50
2018-01-06T22:02:45.039Z,3.20
2018-01-06T22:05:13.322Z,2.80
2018-01-06T22:07:41.652Z,5.27
2018-01-06T22:10:09.977Z,3.50
2018-01-06T22:12:38.332Z,2.20
2018-01-06T22:15:06.797Z,2.33
2018-01-06T22:17:35.093Z,6.57
2018-01-06T22:20:03.419Z,2.20
2018-01-06T22:22:32.177Z,3.30
2018-01-06T22:25:00.453Z,5.47
2018-01-06T22:27:28.777Z,2.87
2018-01-06T22:29:57.817Z,1.87
2018-01-06T22:32:26.535Z,2.03
2018-01-06T22:34:55.689Z,2.07
2018-01-06T22:37:23.997Z,3.37
2018-01-06T22:39:52.705Z,1.87
2018-01-06T22:42:21.163Z,4.07
2018-01-06T22:44:49.453Z,2.80
2018-01-06T22:47:19.273Z,2.60
2018-01-06T22:49:47.693Z,3.90
2018-01-06T22:52:16.200Z,4.83
2018-01-06T22:54:44.890Z,3.63
2018-01-06T22:57:13.197Z,1.60
2018-01-06T22:59:41.501Z,2.57
2018-01-06T23:02:10.074Z,3.60
2018-01-06T23:04:38.457Z,5.10
2018-01-06T23:07:07.699Z,1.87
2018-01-06T23:09:36.356Z,1.77
2018-01-06T23:12:05.700Z,1.33
2018-01-06T23:14:34.808Z,2.13
2018-01-06T23:17:03.200Z,4.60
2018-01-06T23:19:31.669Z,1.33
2018-01-06T23:22:00.026Z,3.30
2018-01-06T23:24:28.336Z,3.77
2018-01-06T23:26:56.701Z,1.30
2018-01-06T23:29:25.961Z,2.77
2018-01-06T23:31:55.020Z,1.27
2018-01-06T23:34:23.329Z,1.60
2018-01-06T23:36:51.652Z,1.87
2018-01-06T23:39:19.946Z,2.83
2018-01-06T23:41:48.313Z,2.30
2018-01-06T23:44:16.789Z,3.20
2018-01-06T23:46:45.946Z,2.87
2018-01-06T23:49:14.416Z,1.90
2018-01-06T23:51:43.562Z,1.37
2018-01-06T23:54:12.270Z,1.43
2018-01-06T23:56:40.625Z,2.73
2018-01-06T23:59:08.916Z,2.83
